ilmateenistus.ee keskkonnaagentuur.ee
EETN Tallinn
FTEO31 EETN 031700
TAF EETN 031700Z 0318/0418 02010KT 9999 SCT015 BKN025 PROB40 TEMPO
    0318/0321 3000 SHSN BKN008 SCT015CB TEMPO 0321/0410 2000 SHSN BKN005
    BKN012CB TEMPO 0415/0418 2000 SHSN BKN008 SCT015CB=

METAR EETN 032150Z 02003KT 340V050 7000 -SN OVC021 M04/M06 Q1000 TEMPO 3000 SN=
Tallinn
EEKA Kärdla
METAR EEKA 032150Z NIL=
Kärdla
EEKE Kuressaare
FCEO32 EETN 031500 AAA
TAF AMD EEKE 031900Z 0316/0322 CNL=

METAR EEKE 032150Z AUTO 33003KT 9999NDV NCD M11/M11 Q1001=
Kuressaare
EEPU Pärnu
METAR EEPU 032150Z NIL=
Pärnu
EETU Tartu
METAR EETU 032150Z AUTO 28011KT 9999 OVC025/// M04/M06 Q0998=
Tartu
EEEI Ämari
METAR EEEI 032150Z AUTO VRB02KT 9999 -SN SCT016/// BKN019/// OVC027/// M04/M06 Q1000=
Ämari